首页
METAR-TAF:

METAR-TAF

机场 :

馬佐夫舍地區托馬舒夫, 波兰

纬度: 51-35-04N, 经度: 020-05-52E, 海拔: 174米

METAR: 丢失

时间: 21:06 (20:06 UTC)

预报

该预报发布于3小时和6分钟前的17:00 UTC
预报有效从19日的 18点(UTC)到 20日的 03点(UTC)
风速10节,风向西转西南
能见度10公里或以上
散云层高于1000英尺
多云层高于3500英尺
小雨
短暂存在
从 19日的 18点(UTC)到 19日的 23点(UTC)
能見度: 6000
多云层高于1500英尺, 积雨云.
阵雨

TAF: EPTM 191700Z 1918/2003 25010KT 9999 -RA SCT010 BKN035 TEMPO 1918/1923 6000 SHRA BKN015CB

超过4000个机场的气象观测和天气预报(METAR&TAF报告)。

可查询的气象台以黄色和红色小点在地图上表示。

将鼠标移到小点上方,可查看气象台名称。

然后点击查看天气观测和预报。

如需切换地图:点击带黑十字的绿色按钮放大地图;点击带横线的绿色按钮缩小地图;或者点击绿色箭头查看邻近地区的地图。


METAR-TAF: